Time;durP1;ratioP1;P1;durP2;ratioP2;P2;SDS_P1;SDS_P2;PMS_P1;PMS_P2;Temp;Humidity;BMP_temperature;BMP_pressure;BME280_temperature;BME280_humidity;BME280_pressure;Samples;Min_cycle;Max_cycle;Signal;HPM_P1;HPM_P2
2023/06/24 00:01:23;;;;;;;;;10.60;7.20;;;;;-143.57;100.00;65101.44;5120720;27;45362;-48
2023/06/24 00:03:53;;;;;;;;;7.25;7.25;;;;;-143.57;100.00;65101.44;5120551;27;46140;-45
2023/06/24 00:06:19;;;;;;;;;7.60;6.60;;;;;-143.57;100.00;65101.44;5120403;27;45276;-45
2023/06/24 00:08:45;;;;;;;;;9.80;5.80;;;;;-143.57;100.00;65101.44;5120619;27;45331;-47
2023/06/24 00:11:12;;;;;;;;;5.20;5.20;;;;;-143.57;100.00;65101.44;5120628;27;45429;-47
2023/06/24 00:13:38;;;;;;;;;7.80;6.00;;;;;-143.57;100.00;65101.44;5120500;27;47138;-47
2023/06/24 00:16:06;;;;;;;;;6.00;6.00;;;;;-143.57;100.00;65101.44;5120547;27;45907;-45
2023/06/24 00:18:31;;;;;;;;;7.60;6.40;;;;;-143.57;100.00;65101.44;5120495;27;45425;-48
2023/06/24 00:20:56;;;;;;;;;9.50;7.75;;;;;-143.57;100.00;65101.44;5120544;27;45482;-44
2023/06/24 00:23:26;;;;;;;;;8.25;6.00;;;;;-143.57;100.00;65101.44;5120236;27;46027;-47
2023/06/24 00:25:52;;;;;;;;;7.20;7.20;;;;;-143.57;100.00;65101.44;5120270;27;45325;-46
2023/06/24 00:28:18;;;;;;;;;9.00;6.60;;;;;-143.57;100.00;65101.44;5119978;27;45217;-48
2023/06/24 00:30:44;;;;;;;;;5.50;5.50;;;;;-143.57;100.00;65101.44;5119895;27;45240;-46
2023/06/24 00:33:11;;;;;;;;;11.00;9.75;;;;;-143.57;100.00;65101.44;5118723;27;46951;-45
2023/06/24 00:35:37;;;;;;;;;9.20;8.00;;;;;-143.57;100.00;65101.44;5120202;27;45467;-46
2023/06/24 00:38:03;;;;;;;;;8.00;7.00;;;;;-143.57;100.00;65101.44;5120331;27;45321;-48
2023/06/24 00:40:28;;;;;;;;;9.00;6.50;;;;;-143.57;100.00;65101.44;5120421;27;45417;-46
2023/06/24 00:42:55;;;;;;;;;6.25;6.00;;;;;-143.57;100.00;65101.44;5124164;27;46790;-48
2023/06/24 00:45:21;;;;;;;;;6.00;5.80;;;;;-143.57;100.00;65101.44;5125834;27;45308;-47
2023/06/24 00:47:47;;;;;;;;;9.80;8.20;;;;;-143.57;100.00;65101.44;5127963;27;45437;-46
2023/06/24 00:50:12;;;;;;;;;8.25;7.00;;;;;-143.57;100.00;65101.44;5128335;27;45417;-47
2023/06/24 00:52:42;;;;;;;;;7.00;7.00;;;;;-143.57;100.00;65101.44;5127324;27;46027;-48
2023/06/24 00:55:14;;;;;;;;;5.40;5.20;;;;;-143.57;100.00;65101.44;5123465;27;45419;-48
2023/06/24 00:57:42;;;;;;;;;7.80;5.80;;;;;-143.57;100.00;65101.44;5119998;27;45385;-48
2023/06/24 01:00:16;;;;;;;;;8.00;6.50;;;;;-143.57;100.00;65101.44;5119980;27;45434;-46
2023/06/24 01:02:42;;;;;;;;;7.20;6.60;;;;;-143.57;100.00;65101.44;5119725;27;45795;-48
2023/06/24 01:05:09;;;;;;;;;9.80;7.20;;;;;-143.57;100.00;65101.44;5119840;27;45482;-46
2023/06/24 01:07:35;;;;;;;;;8.00;6.40;;;;;-143.57;100.00;65101.44;5119883;27;45402;-46
2023/06/24 01:10:04;;;;;;;;;8.50;7.00;;;;;-143.57;100.00;65101.44;5120083;27;45299;-46
2023/06/24 01:12:29;;;;;;;;;6.40;6.00;;;;;-143.57;100.00;65101.44;5119232;27;46926;-45
2023/06/24 01:14:55;;;;;;;;;5.75;5.75;;;;;-143.57;100.00;65101.44;5119547;27;45295;-46
2023/06/24 01:17:30;;;;;;;;;8.00;6.20;;;;;-143.57;100.00;65101.44;5119722;27;45410;-48
2023/06/24 01:20:12;;;;;;;;;8.20;5.80;;;;;-143.57;100.00;65101.44;5119613;27;45452;-45
2023/06/24 01:22:46;;;;;;;;;6.00;5.00;;;;;-143.57;100.00;65101.44;5119331;27;46107;-46
2023/06/24 01:25:33;;;;;;;;;5.20;4.80;;;;;-143.57;100.00;65101.44;5100885;27;45460;-47
2023/06/24 01:28:43;;;;;;;;;5.40;5.00;;;;;-143.57;100.00;65101.44;5119044;27;45166;-46
2023/06/24 01:31:34;;;;;;;;;7.00;7.00;;;;;-143.57;100.00;65101.44;5085241;27;45313;-48
2023/06/24 01:34:22;;;;;;;;;6.20;5.20;;;;;-143.57;100.00;65101.44;5119198;27;46938;-48
2023/06/24 01:37:03;;;;;;;;;9.20;7.80;;;;;-143.57;100.00;65101.44;5118970;27;45434;-46
2023/06/24 01:39:33;;;;;;;;;5.80;4.40;;;;;-143.57;100.00;65101.44;5119250;27;45183;-46
2023/06/24 01:42:03;;;;;;;;;7.00;7.00;;;;;-143.57;100.00;65101.44;5118532;27;45360;-44
2023/06/24 01:44:29;;;;;;;;;6.60;6.60;;;;;-143.57;100.00;65101.44;5118877;27;47147;-48
2023/06/24 01:46:58;;;;;;;;;6.00;6.00;;;;;-143.57;100.00;65101.44;5119115;27;45360;-48
2023/06/24 01:49:29;;;;;;;;;8.00;5.00;;;;;-143.57;100.00;65101.44;5119122;27;45323;-46
2023/06/24 01:51:57;;;;;;;;;6.60;6.60;;;;;-143.57;100.00;65101.44;5119207;27;45160;-49
2023/06/24 01:54:24;;;;;;;;;8.40;5.60;;;;;-143.57;100.00;65101.44;5118848;27;45974;-46
2023/06/24 01:56:51;;;;;;;;;5.00;4.80;;;;;-143.57;100.00;65101.44;5118899;27;45371;-47
2023/06/24 01:59:19;;;;;;;;;8.20;6.20;;;;;-143.57;100.00;65101.44;5118828;27;45234;-48
2023/06/24 02:01:45;;;;;;;;;4.60;4.60;;;;;-143.57;100.00;65101.44;5119002;27;45379;-48
2023/06/24 02:04:13;;;;;;;;;8.50;6.00;;;;;-143.57;100.00;65101.44;5118914;27;45425;-46
2023/06/24 02:06:40;;;;;;;;;5.00;5.00;;;;;-143.57;100.00;65101.44;5118644;27;45510;-50
2023/06/24 02:09:06;;;;;;;;;5.80;5.00;;;;;-143.57;100.00;65101.44;5118959;27;45386;-48
2023/06/24 02:11:34;;;;;;;;;7.50;7.00;;;;;-143.57;100.00;65101.44;5118931;27;45450;-46
2023/06/24 02:14:03;;;;;;;;;7.80;5.80;;;;;-143.57;100.00;65101.44;5118351;27;46291;-46
2023/06/24 02:16:29;;;;;;;;;7.40;6.00;;;;;-143.57;100.00;65101.44;5118593;27;45349;-48
2023/06/24 02:18:56;;;;;;;;;8.00;6.00;;;;;-143.57;100.00;65101.44;5118715;27;45292;-47
2023/06/24 02:21:23;;;;;;;;;5.00;4.75;;;;;-143.57;100.00;65101.44;5118843;27;45387;-49
2023/06/24 02:23:49;;;;;;;;;5.60;5.60;;;;;-143.57;100.00;65101.44;5118302;27;45395;-45
2023/06/24 02:26:15;;;;;;;;;8.00;6.25;;;;;-143.57;100.00;65101.44;5118464;27;45296;-46
2023/06/24 02:28:43;;;;;;;;;10.20;6.00;;;;;-143.57;100.00;65101.44;5118181;27;45260;-48
2023/06/24 02:31:10;;;;;;;;;6.00;6.00;;;;;-143.57;100.00;65101.44;5118706;27;45430;-46
2023/06/24 02:33:36;;;;;;;;;9.50;6.25;;;;;-143.57;100.00;65101.44;5118246;27;46066;-48
2023/06/24 02:36:01;;;;;;;;;8.25;7.00;;;;;-143.57;100.00;65101.44;5118392;27;45407;-49
2023/06/24 02:38:26;;;;;;;;;7.75;7.50;;;;;-143.57;100.00;65101.44;5118634;27;45294;-47
2023/06/24 02:40:52;;;;;;;;;5.75;5.75;;;;;-143.57;100.00;65101.44;5118756;27;45309;-48
2023/06/24 02:43:17;;;;;;;;;7.25;6.00;;;;;-143.57;100.00;65101.44;5118106;27;45364;-47
2023/06/24 02:45:45;;;;;;;;;8.25;7.00;;;;;-143.57;100.00;65101.44;5118019;27;45240;-46
2023/06/24 02:48:11;;;;;;;;;4.80;4.80;;;;;-143.57;100.00;65101.44;5118583;27;45319;-49
2023/06/24 02:50:37;;;;;;;;;7.50;5.50;;;;;-143.57;100.00;65101.44;5118453;27;45314;-48
2023/06/24 02:53:04;;;;;;;;;6.60;5.60;;;;;-143.57;100.00;65101.44;5119191;27;46115;-46
2023/06/24 02:55:31;;;;;;;;;9.80;6.00;;;;;-143.57;100.00;65101.44;5121752;27;45483;-45
2023/06/24 02:57:57;;;;;;;;;5.80;5.00;;;;;-143.57;100.00;65101.44;5121734;27;45408;-47
2023/06/24 03:00:23;;;;;;;;;11.00;4.75;;;;;-143.57;100.00;65101.44;5122056;27;45221;-45
2023/06/24 03:02:50;;;;;;;;;5.00;5.00;;;;;-143.57;100.00;65101.44;5121586;27;46149;-47
2023/06/24 03:05:18;;;;;;;;;4.00;4.00;;;;;-143.57;100.00;65101.44;5121561;27;45351;-45
2023/06/24 03:07:45;;;;;;;;;6.80;5.20;;;;;-143.57;100.00;65101.44;5103176;27;45409;-50
2023/06/24 03:10:10;;;;;;;;;6.75;5.75;;;;;-143.57;100.00;65101.44;5121806;27;45362;-48
2023/06/24 03:12:36;;;;;;;;;7.25;5.75;;;;;-143.57;100.00;65101.44;5121339;27;45528;-46
2023/06/24 03:15:02;;;;;;;;;6.00;6.00;;;;;-143.57;100.00;65101.44;5121427;27;45453;-46
2023/06/24 03:17:27;;;;;;;;;6.75;5.50;;;;;-143.57;100.00;65101.44;5121584;27;45326;-49
2023/06/24 03:19:52;;;;;;;;;7.75;5.50;;;;;-143.57;100.00;65101.44;5121812;27;45398;-50
2023/06/24 03:22:18;;;;;;;;;8.25;8.00;;;;;-143.57;100.00;65101.44;5121225;27;45995;-47
2023/06/24 03:24:43;;;;;;;;;10.25;10.25;;;;;-143.57;100.00;65101.44;5120479;27;45435;-47
2023/06/24 03:27:09;;;;;;;;;15.25;14.00;;;;;-143.57;100.00;65101.44;5121271;27;45349;-47
2023/06/24 03:29:35;;;;;;;;;12.25;10.25;;;;;-143.57;100.00;65101.44;5121318;27;45502;-46
2023/06/24 03:32:00;;;;;;;;;11.75;11.50;;;;;-143.57;100.00;65101.44;5121341;27;46084;-45
2023/06/24 03:34:26;;;;;;;;;13.75;12.75;;;;;-143.57;100.00;65101.44;5121085;27;45328;-45
2023/06/24 03:36:54;;;;;;;;;16.75;13.00;;;;;-143.57;100.00;65101.44;5121298;27;45409;-49
2023/06/24 03:39:20;;;;;;;;;15.50;12.50;;;;;-143.57;100.00;65101.44;5121259;27;45461;-45
2023/06/24 03:41:45;;;;;;;;;15.00;13.00;;;;;-143.57;100.00;65101.44;5120645;27;46536;-47
2023/06/24 03:44:11;;;;;;;;;18.75;15.25;;;;;-143.57;100.00;65101.44;5121012;27;45426;-44
2023/06/24 03:46:36;;;;;;;;;13.00;10.25;;;;;-143.57;100.00;65101.44;5121022;27;45315;-49
2023/06/24 03:49:02;;;;;;;;;11.50;10.50;;;;;-143.57;100.00;65101.44;5121143;27;45477;-48
2023/06/24 03:51:27;;;;;;;;;11.25;10.00;;;;;-143.57;100.00;65101.44;5120849;27;46207;-47
2023/06/24 03:53:52;;;;;;;;;9.50;9.50;;;;;-143.57;100.00;65101.44;5120732;27;45220;-47
2023/06/24 03:56:18;;;;;;;;;12.25;11.00;;;;;-143.57;100.00;65101.44;5120924;27;45343;-47
2023/06/24 03:58:43;;;;;;;;;7.50;6.50;;;;;-143.57;100.00;65101.44;5120806;27;45570;-47
2023/06/24 04:01:09;;;;;;;;;6.00;6.00;;;;;-143.57;100.00;65101.44;5120563;27;46179;-46
2023/06/24 04:03:34;;;;;;;;;13.00;8.00;;;;;-143.57;100.00;65101.44;5120906;27;45487;-46
2023/06/24 04:06:01;;;;;;;;;8.75;6.25;;;;;-143.57;100.00;65101.44;5119817;27;45305;-46
2023/06/24 04:08:30;;;;;;;;;7.25;6.25;;;;;-143.57;100.00;65101.44;5121092;27;45429;-45
2023/06/24 04:11:00;;;;;;;;;9.00;7.00;;;;;-143.57;100.00;65101.44;5119668;27;45466;-49
2023/06/24 04:13:25;;;;;;;;;5.20;5.20;;;;;-143.57;100.00;65101.44;5120605;27;45437;-47
2023/06/24 04:15:51;;;;;;;;;6.00;5.25;;;;;-143.57;100.00;65101.44;5120519;27;45495;-49
2023/06/24 04:18:16;;;;;;;;;7.00;7.00;;;;;-143.57;100.00;65101.44;5120859;27;45228;-45
2023/06/24 04:20:42;;;;;;;;;6.25;6.25;;;;;-143.57;100.00;65101.44;5120410;27;46841;-46
2023/06/24 04:23:09;;;;;;;;;6.75;6.75;;;;;-143.57;100.00;65101.44;5120456;27;45386;-48
2023/06/24 04:25:35;;;;;;;;;5.75;5.50;;;;;-143.57;100.00;65101.44;5120450;27;45434;-45
2023/06/24 04:28:00;;;;;;;;;6.75;4.25;;;;;-143.57;100.00;65101.44;5120483;27;45324;-46
2023/06/24 04:30:26;;;;;;;;;8.00;6.75;;;;;-143.57;100.00;65101.44;5120229;27;46737;-45
2023/06/24 04:32:51;;;;;;;;;9.00;5.75;;;;;-143.57;100.00;65101.44;5120481;27;45259;-47
2023/06/24 04:35:16;;;;;;;;;9.25;7.25;;;;;-143.57;100.00;65101.44;5119781;27;45274;-47
2023/06/24 04:37:42;;;;;;;;;7.25;5.25;;;;;-143.57;100.00;65101.44;5120566;27;45327;-45
2023/06/24 04:40:08;;;;;;;;;6.25;5.00;;;;;-143.57;100.00;65101.44;5120208;27;46017;-47
2023/06/24 04:42:34;;;;;;;;;10.40;6.00;;;;;-143.57;100.00;65101.44;5119153;27;45438;-47
2023/06/24 04:44:59;;;;;;;;;8.00;5.00;;;;;-143.57;100.00;65101.44;5120262;27;45835;-46
2023/06/24 04:47:25;;;;;;;;;6.75;6.50;;;;;-143.57;100.00;65101.44;5120440;27;45457;-46
2023/06/24 04:49:50;;;;;;;;;5.75;5.75;;;;;-143.57;100.00;65101.44;5119937;27;45415;-48
2023/06/24 04:52:15;;;;;;;;;7.75;4.75;;;;;-143.57;100.00;65101.44;5101436;27;48177;-44
2023/06/24 04:54:41;;;;;;;;;4.50;4.50;;;;;-143.57;100.00;65101.44;5119892;27;45268;-47
2023/06/24 04:57:22;;;;;;;;;6.25;6.25;;;;;-143.57;100.00;65101.44;5101681;27;45449;-47
2023/06/24 04:59:47;;;;;;;;;7.40;5.00;;;;;-143.57;100.00;65101.44;5119759;27;46159;-47
2023/06/24 05:02:12;;;;;;;;;5.75;4.75;;;;;-143.57;100.00;65101.44;5119431;27;50794;-46
2023/06/24 05:04:38;;;;;;;;;5.75;5.75;;;;;-143.57;100.00;65101.44;5119812;27;45220;-44
2023/06/24 05:07:03;;;;;;;;;5.75;5.75;;;;;-143.57;100.00;65101.44;5119874;27;45139;-45
2023/06/24 05:09:29;;;;;;;;;29.33;25.67;;;;;-143.57;100.00;65101.44;5101384;27;46133;-50
2023/06/24 05:11:54;;;;;;;;;27.67;23.00;;;;;-143.57;100.00;65101.44;5119641;27;45459;-50
2023/06/24 05:14:19;;;;;;;;;10.00;10.00;;;;;-143.57;100.00;65101.44;5119487;27;45406;-48
2023/06/24 05:16:45;;;;;;;;;5.25;5.25;;;;;-143.57;100.00;65101.44;5119917;27;45313;-45
2023/06/24 05:19:10;;;;;;;;;8.00;8.00;;;;;-143.57;100.00;65101.44;5119459;27;46113;-48
2023/06/24 05:21:36;;;;;;;;;8.00;7.00;;;;;-143.57;100.00;65101.44;5119679;27;45508;-46
2023/06/24 05:24:01;;;;;;;;;10.00;7.75;;;;;-143.57;100.00;65101.44;5119691;27;45268;-47
2023/06/24 05:26:26;;;;;;;;;6.50;6.50;;;;;-143.57;100.00;65101.44;5119429;27;45220;-48
2023/06/24 05:28:51;;;;;;;;;5.00;4.25;;;;;-143.57;100.00;65101.44;5118903;27;46795;-47
2023/06/24 05:31:18;;;;;;;;;4.50;4.25;;;;;-143.57;100.00;65101.44;5119292;27;45399;-48
2023/06/24 05:33:43;;;;;;;;;6.60;5.20;;;;;-143.57;100.00;65101.44;5119398;27;45415;-45
2023/06/24 05:36:08;;;;;;;;;6.25;5.00;;;;;-143.57;100.00;65101.44;5119569;27;45384;-48
2023/06/24 05:38:34;;;;;;;;;7.50;4.75;;;;;-143.57;100.00;65101.44;5119123;27;45945;-46
2023/06/24 05:41:02;;;;;;;;;6.50;6.50;;;;;-143.57;100.00;65101.44;5118913;27;53852;-47
2023/06/24 05:43:27;;;;;;;;;5.20;4.60;;;;;-143.57;100.00;65101.44;5119285;27;45300;-48
2023/06/24 05:45:53;;;;;;;;;5.75;4.00;;;;;-143.57;100.00;65101.44;5119164;27;45516;-45
2023/06/24 05:48:18;;;;;;;;;6.25;6.25;;;;;-143.57;100.00;65101.44;5117959;27;45452;-47
2023/06/24 05:50:43;;;;;;;;;5.00;5.00;;;;;-143.57;100.00;65101.44;5118949;27;45344;-46
2023/06/24 05:53:08;;;;;;;;;4.00;4.00;;;;;-143.57;100.00;65101.44;5100517;27;45324;-48
2023/06/24 05:55:34;;;;;;;;;7.25;5.00;;;;;-143.57;100.00;65101.44;5119252;27;45245;-46
2023/06/24 05:57:59;;;;;;;;;6.75;5.00;;;;;-143.57;100.00;65101.44;5118879;27;45476;-47
2023/06/24 06:00:24;;;;;;;;;4.50;4.50;;;;;-143.57;100.00;65101.44;5118728;27;48390;-49
2023/06/24 06:02:50;;;;;;;;;6.00;5.00;;;;;-143.57;100.00;65101.44;5118987;27;45310;-48
2023/06/24 06:05:15;;;;;;;;;4.00;4.00;;;;;-143.57;100.00;65101.44;5119192;27;45324;-47
2023/06/24 06:07:41;;;;;;;;;6.00;5.75;;;;;-143.57;100.00;65101.44;5118840;27;45337;-50
2023/06/24 06:10:06;;;;;;;;;5.50;4.25;;;;;-143.57;100.00;65101.44;5118650;27;45263;-48
2023/06/24 06:12:32;;;;;;;;;5.25;4.75;;;;;-143.57;100.00;65101.44;5118946;27;45316;-45
2023/06/24 06:14:57;;;;;;;;;6.00;5.00;;;;;-143.57;100.00;65101.44;5118585;27;45440;-48
2023/06/24 06:17:23;;;;;;;;;8.50;6.00;;;;;-143.57;100.00;65101.44;5118718;27;45975;-46
2023/06/24 06:19:48;;;;;;;;;5.50;2.75;;;;;-143.57;100.00;65101.44;5118620;27;45335;-47
2023/06/24 06:22:15;;;;;;;;;7.50;6.75;;;;;-143.57;100.00;65101.44;5118691;27;45347;-46
2023/06/24 06:24:41;;;;;;;;;10.50;8.00;;;;;-143.57;100.00;65101.44;5118098;27;45399;-49
2023/06/24 06:27:10;;;;;;;;;9.00;6.00;;;;;-143.57;100.00;65101.44;5117913;27;45297;-48
2023/06/24 06:29:36;;;;;;;;;25.75;20.25;;;;;-143.57;100.00;65101.44;5118109;27;45421;-49
2023/06/24 06:32:01;;;;;;;;;10.00;8.25;;;;;-143.57;100.00;65101.44;5118352;27;45285;-45
2023/06/24 06:34:26;;;;;;;;;8.75;8.00;;;;;-143.57;100.00;65101.44;5118596;27;45465;-47
2023/06/24 06:36:52;;;;;;;;;8.00;6.00;;;;;-143.57;100.00;65101.44;5118315;27;46135;-48
2023/06/24 06:39:17;;;;;;;;;50.67;37.33;;;;;-143.57;100.00;65101.44;5118264;27;45260;-47
2023/06/24 06:41:42;;;;;;;;;11.00;11.00;;;;;-143.57;100.00;65101.44;5118557;27;45438;-48
2023/06/24 06:44:07;;;;;;;;;6.50;6.00;;;;;-143.57;100.00;65101.44;5118581;27;45325;-47
2023/06/24 06:46:33;;;;;;;;;61.67;46.33;;;;;-143.57;100.00;65101.44;5117939;27;45416;-49
2023/06/24 06:48:59;;;;;;;;;20.50;15.75;;;;;-143.57;100.00;65101.44;5099685;27;45262;-46
2023/06/24 06:51:25;;;;;;;;;7.00;7.00;;;;;-143.57;100.00;65101.44;5118195;27;45341;-49
2023/06/24 06:53:51;;;;;;;;;5.00;4.75;;;;;-143.57;100.00;65101.44;5118381;27;45328;-48
2023/06/24 06:56:24;;;;;;;;;5.50;5.50;;;;;-143.57;100.00;65101.44;5117923;27;46973;-51
2023/06/24 06:58:49;;;;;;;;;5.40;5.40;;;;;-143.57;100.00;65101.44;5099644;27;45447;-48
2023/06/24 07:01:15;;;;;;;;;6.25;6.25;;;;;-143.57;100.00;65101.44;5118202;27;45277;-49
2023/06/24 07:03:40;;;;;;;;;7.00;5.25;;;;;-143.57;100.00;65101.44;5117285;27;45327;-45
2023/06/24 07:06:05;;;;;;;;;6.00;4.00;;;;;-143.57;100.00;65101.44;5117874;27;45461;-46
2023/06/24 07:08:31;;;;;;;;;5.50;4.75;;;;;-143.57;100.00;65101.44;5117895;27;45174;-49
2023/06/24 07:10:56;;;;;;;;;4.75;4.50;;;;;-143.57;100.00;65101.44;5118097;27;45310;-46
2023/06/24 07:13:21;;;;;;;;;8.00;8.00;;;;;-143.57;100.00;65101.44;5118230;27;45252;-46
2023/06/24 07:15:47;;;;;;;;;7.00;5.25;;;;;-143.57;100.00;65101.44;5117309;27;46026;-47
2023/06/24 07:18:12;;;;;;;;;7.00;5.25;;;;;-143.57;100.00;65101.44;5117763;27;45366;-49
2023/06/24 07:20:38;;;;;;;;;7.00;7.00;;;;;-143.57;100.00;65101.44;5118012;27;45511;-48
2023/06/24 07:23:04;;;;;;;;;5.50;4.00;;;;;-143.57;100.00;65101.44;5118061;27;45261;-50
2023/06/24 07:25:30;;;;;;;;;4.20;4.00;;;;;-143.57;100.00;65101.44;5117577;27;45329;-48
2023/06/24 07:27:55;;;;;;;;;5.00;5.00;;;;;-143.57;100.00;65101.44;5117601;27;45296;-49
2023/06/24 07:30:21;;;;;;;;;7.25;7.25;;;;;-143.57;100.00;65101.44;5117547;27;45165;-44
2023/06/24 07:32:46;;;;;;;;;5.25;5.25;;;;;-143.57;100.00;65101.44;5117699;27;45591;-47
2023/06/24 07:35:13;;;;;;;;;4.50;4.50;;;;;-143.57;100.00;65101.44;5117396;27;46295;-47
2023/06/24 07:37:38;;;;;;;;;8.00;6.20;;;;;-143.57;100.00;65101.44;5117424;27;45457;-42
2023/06/24 07:40:06;;;;;;;;;7.25;5.50;;;;;-143.57;100.00;65101.44;5118846;27;45333;-48
2023/06/24 07:42:31;;;;;;;;;5.60;4.60;;;;;-143.57;100.00;65101.44;5121192;27;45252;-46
2023/06/24 07:44:56;;;;;;;;;7.75;4.75;;;;;-143.57;100.00;65101.44;5121225;27;45635;-46
2023/06/24 07:47:22;;;;;;;;;5.00;5.00;;;;;-143.57;100.00;65101.44;5120751;27;45296;-41
2023/06/24 07:49:47;;;;;;;;;4.75;4.75;;;;;-143.57;100.00;65101.44;5120949;27;45269;-46
2023/06/24 07:52:12;;;;;;;;;3.75;3.75;;;;;-143.57;100.00;65101.44;5121150;27;45398;-48
2023/06/24 07:54:38;;;;;;;;;7.00;4.75;;;;;-143.57;100.00;65101.44;5120678;27;46098;-45
2023/06/24 07:57:03;;;;;;;;;6.50;2.00;;;;;-143.57;100.00;65101.44;5120886;27;45348;-45
2023/06/24 07:59:29;;;;;;;;;6.00;6.00;;;;;-143.57;100.00;65101.44;5120906;27;45232;-44
2023/06/24 08:01:54;;;;;;;;;6.75;6.75;;;;;-143.57;100.00;65101.44;5120649;27;45296;-47
2023/06/24 08:04:20;;;;;;;;;9.00;6.00;;;;;-143.57;100.00;65101.44;5120369;27;45775;-46
2023/06/24 08:06:45;;;;;;;;;3.75;3.75;;;;;-143.57;100.00;65101.44;5120454;27;45229;-46
2023/06/24 08:09:11;;;;;;;;;5.00;5.00;;;;;-143.57;100.00;65101.44;5120938;27;45341;-47
2023/06/24 08:11:36;;;;;;;;;4.25;3.25;;;;;-143.57;100.00;65101.44;5120618;27;45394;-47
2023/06/24 08:14:02;;;;;;;;;4.50;4.50;;;;;-143.57;100.00;65101.44;5120097;27;52982;-46
2023/06/24 08:16:27;;;;;;;;;6.50;5.00;;;;;-143.57;100.00;65101.44;5120230;27;45289;-45
2023/06/24 08:18:53;;;;;;;;;5.50;4.75;;;;;-143.57;100.00;65101.44;5120697;27;45389;-44
2023/06/24 08:21:18;;;;;;;;;5.00;5.00;;;;;-143.57;100.00;65101.44;5115588;27;45510;-45
2023/06/24 08:23:44;;;;;;;;;5.25;4.50;;;;;-143.57;100.00;65101.44;5096063;27;45485;-45
2023/06/24 08:26:09;;;;;;;;;6.50;5.25;;;;;-143.57;100.00;65101.44;5096075;27;45596;-42
2023/06/24 08:28:35;;;;;;;;;9.00;4.75;;;;;-143.57;100.00;65101.44;5096729;27;45335;-45
2023/06/24 08:31:01;;;;;;;;;4.80;4.40;;;;;-143.57;100.00;65101.44;5096986;27;45577;-44
2023/06/24 08:33:26;;;;;;;;;6.00;5.75;;;;;-143.57;100.00;65101.44;5097161;27;45674;-44
2023/06/24 08:35:51;;;;;;;;;5.00;4.00;;;;;-143.57;100.00;65101.44;5096523;27;46560;-41
2023/06/24 08:38:17;;;;;;;;;4.50;4.50;;;;;-143.57;100.00;65101.44;5097168;27;45427;-47
2023/06/24 08:40:44;;;;;;;;;5.00;5.00;;;;;-143.57;100.00;65101.44;5096864;27;45396;-47
2023/06/24 08:43:09;;;;;;;;;4.20;4.20;;;;;-143.57;100.00;65101.44;5096283;27;46307;-45
2023/06/24 08:45:35;;;;;;;;;5.75;3.75;;;;;-143.57;100.00;65101.44;5099035;27;45365;-43
2023/06/24 08:48:02;;;;;;;;;4.75;4.75;;;;;-143.57;100.00;65101.44;5099378;27;45413;-49
2023/06/24 08:50:34;;;;;;;;;6.20;5.00;;;;;-143.57;100.00;65101.44;5099216;27;45297;-48
2023/06/24 08:53:03;;;;;;;;;6.00;4.00;;;;;-143.57;100.00;65101.44;5099327;27;45299;-44
2023/06/24 08:55:32;;;;;;;;;4.20;4.20;;;;;-143.57;100.00;65101.44;5098999;27;45366;-44
2023/06/24 08:57:58;;;;;;;;;4.80;4.60;;;;;-143.57;100.00;65101.44;5098408;27;45339;-47
2023/06/24 09:00:24;;;;;;;;;1.00;1.00;;;;;-143.57;100.00;65101.44;5099493;27;45297;-42
2023/06/24 09:02:49;;;;;;;;;5.60;5.00;;;;;-143.57;100.00;65101.44;5098120;27;47650;-45
2023/06/24 09:05:15;;;;;;;;;2.50;2.50;;;;;-143.57;100.00;65101.44;5099244;27;45339;-43
2023/06/24 09:07:40;;;;;;;;;5.50;5.50;;;;;-143.57;100.00;65101.44;5098875;27;45496;-50
2023/06/24 09:10:06;;;;;;;;;5.75;5.75;;;;;-143.57;100.00;65101.44;5099106;27;45201;-46
2023/06/24 09:12:32;;;;;;;;;5.50;5.50;;;;;-143.57;100.00;65101.44;5099007;27;46168;-48
2023/06/24 09:14:58;;;;;;;;;5.60;5.60;;;;;-143.57;100.00;65101.44;5098830;27;45221;-48
2023/06/24 09:17:23;;;;;;;;;4.25;4.25;;;;;-143.57;100.00;65101.44;5099089;27;45393;-47
2023/06/24 09:19:50;;;;;;;;;7.25;6.25;;;;;-143.57;100.00;65101.44;5098946;27;45428;-47
2023/06/24 09:22:18;;;;;;;;;6.00;6.00;;;;;-143.57;100.00;65101.44;5098609;27;46691;-54
2023/06/24 09:24:48;;;;;;;;;5.00;4.00;;;;;-143.57;100.00;65101.44;5098676;27;45343;-43
2023/06/24 09:27:15;;;;;;;;;5.80;5.80;;;;;-143.57;100.00;65101.44;5079952;27;45456;-46
2023/06/24 09:29:41;;;;;;;;;4.40;4.40;;;;;-143.57;100.00;65101.44;5098926;27;45331;-48
2023/06/24 09:32:07;;;;;;;;;4.20;4.20;;;;;-143.57;100.00;65101.44;5098204;27;46385;-50
2023/06/24 09:34:33;;;;;;;;;5.00;5.00;;;;;-143.57;100.00;65101.44;5098686;27;45421;-43
2023/06/24 09:36:59;;;;;;;;;6.20;5.00;;;;;-143.57;100.00;65101.44;5099012;27;45228;-45
2023/06/24 09:39:30;;;;;;;;;6.20;4.80;;;;;-143.57;100.00;65101.44;5099268;27;45291;-48
2023/06/24 09:41:56;;;;;;;;;6.60;5.80;;;;;-143.57;100.00;65101.44;5098184;27;46511;-48
2023/06/24 09:44:22;;;;;;;;;5.60;5.40;;;;;-143.57;100.00;65101.44;5098588;27;45336;-47
2023/06/24 09:46:48;;;;;;;;;7.00;5.80;;;;;-143.57;100.00;65101.44;5098843;27;45369;-49
2023/06/24 09:49:14;;;;;;;;;6.50;4.50;;;;;-143.57;100.00;65101.44;5098578;27;45332;-49
2023/06/24 09:51:45;;;;;;;;;7.00;5.20;;;;;-143.57;100.00;65101.44;5098239;27;45987;-48
2023/06/24 09:54:12;;;;;;;;;6.40;5.60;;;;;-143.57;100.00;65101.44;5097336;27;45413;-46
2023/06/24 09:56:41;;;;;;;;;5.60;5.60;;;;;-143.57;100.00;65101.44;5098175;27;45366;-48
2023/06/24 09:59:07;;;;;;;;;6.20;6.20;;;;;-143.57;100.00;65101.44;5098431;27;45316;-47
2023/06/24 10:01:38;;;;;;;;;7.25;6.00;;;;;-143.57;100.00;65101.44;5097992;27;45431;-48
2023/06/24 10:04:05;;;;;;;;;6.00;6.00;;;;;-143.57;100.00;65101.44;5097177;27;45339;-47
2023/06/24 10:06:31;;;;;;;;;5.60;5.20;;;;;-143.57;100.00;65101.44;5097588;27;45361;-50
2023/06/24 10:08:58;;;;;;;;;7.40;7.00;;;;;-143.57;100.00;65101.44;5097786;27;45428;-46
2023/06/24 10:11:23;;;;;;;;;6.20;5.20;;;;;-143.57;100.00;65101.44;5097697;27;46171;-46
2023/06/24 10:13:48;;;;;;;;;7.75;6.50;;;;;-143.57;100.00;65101.44;5097451;27;45384;-45
2023/06/24 10:16:15;;;;;;;;;6.75;6.75;;;;;-143.57;100.00;65101.44;5079464;27;45410;-53
2023/06/24 10:18:41;;;;;;;;;5.80;5.80;;;;;-143.57;100.00;65101.44;5097891;27;45555;-46
2023/06/24 10:21:08;;;;;;;;;7.75;6.00;;;;;-143.57;100.00;65101.44;5097775;27;46104;-44
2023/06/24 10:23:54;;;;;;;;;7.00;7.00;;;;;-143.57;100.00;65101.44;5079306;27;45469;-51
2023/06/24 10:26:28;;;;;;;;;5.80;5.80;;;;;-143.57;100.00;65101.44;5097390;27;45342;-44
2023/06/24 10:29:05;;;;;;;;;10.00;8.20;;;;;-143.57;100.00;65101.44;5098044;27;45332;-45
2023/06/24 10:31:39;;;;;;;;;12.00;9.40;;;;;-143.57;100.00;65101.44;5097798;27;46242;-47
2023/06/24 10:34:24;;;;;;;;;9.40;7.60;;;;;-143.57;100.00;65101.44;5097335;27;45348;-46
2023/06/24 10:37:04;;;;;;;;;8.20;7.00;;;;;-143.57;100.00;65101.44;5097935;27;45316;-47
2023/06/24 10:39:56;;;;;;;;;8.00;7.00;;;;;-143.57;100.00;65101.44;5098010;27;45365;-48
2023/06/24 10:42:42;;;;;;;;;8.00;6.40;;;;;-143.57;100.00;65101.44;5079297;27;46325;-50
2023/06/24 10:45:11;;;;;;;;;10.20;7.20;;;;;-143.57;100.00;65101.44;5104783;27;45487;-50
2023/06/24 10:47:40;;;;;;;;;9.00;7.80;;;;;-143.57;100.00;65101.44;5102598;27;45309;-49
2023/06/24 10:50:06;;;;;;;;;10.00;10.00;;;;;-143.57;100.00;65101.44;5106155;27;45620;-49
2023/06/24 10:52:32;;;;;;;;;7.00;6.00;;;;;-143.57;100.00;65101.44;5105286;27;45327;-46
2023/06/24 10:54:58;;;;;;;;;6.50;6.00;;;;;-143.57;100.00;65101.44;5104897;27;45337;-48
2023/06/24 10:57:26;;;;;;;;;9.40;7.40;;;;;-143.57;100.00;65101.44;5105094;27;45391;-49
2023/06/24 10:59:56;;;;;;;;;6.80;5.80;;;;;-143.57;100.00;65101.44;5107169;27;45396;-45
2023/06/24 11:02:23;;;;;;;;;7.80;7.20;;;;;-143.57;100.00;65101.44;5103889;27;46394;-49
2023/06/24 11:04:59;;;;;;;;;8.80;8.00;;;;;-143.57;100.00;65101.44;5101580;27;45295;-48
2023/06/24 11:07:27;;;;;;;;;9.20;7.00;;;;;-143.57;100.00;65101.44;5107004;27;45347;-49